createdAt,value
2023-02-18T00:02:04.298Z,6.33
2023-02-18T00:04:50.494Z,8.77
2023-02-18T00:07:36.887Z,6.30
2023-02-18T00:10:24.889Z,5.80
2023-02-18T00:13:11.319Z,6.43
2023-02-18T00:16:01.768Z,7.13
2023-02-18T00:18:48.400Z,6.87
2023-02-18T00:21:35.809Z,7.13
2023-02-18T00:24:22.472Z,7.07
2023-02-18T00:27:10.535Z,7.40
2023-02-18T00:29:56.777Z,6.27
2023-02-18T00:32:43.204Z,5.53
2023-02-18T00:35:29.819Z,6.60
2023-02-18T00:38:16.137Z,6.17
2023-02-18T00:41:02.883Z,5.97
2023-02-18T00:43:53.238Z,6.37
2023-02-18T00:46:39.635Z,5.23
2023-02-18T00:49:26.327Z,5.97
2023-02-18T00:52:12.687Z,6.17
2023-02-18T00:54:58.919Z,5.20
2023-02-18T00:57:45.029Z,5.57
2023-02-18T01:00:32.728Z,5.00
2023-02-18T01:03:19.940Z,4.70
2023-02-18T01:06:06.967Z,6.27
2023-02-18T01:08:53.531Z,6.20
2023-02-18T01:11:39.748Z,5.50
2023-02-18T01:14:25.966Z,4.87
2023-02-18T01:17:13.887Z,4.50
2023-02-18T01:20:00.911Z,3.67
2023-02-18T01:22:47.067Z,5.73
2023-02-18T01:25:34.264Z,4.67
2023-02-18T01:28:21.508Z,3.43
2023-02-18T01:31:08.688Z,3.90
2023-02-18T01:33:56.610Z,3.57
2023-02-18T01:36:45.584Z,4.97
2023-02-18T01:39:32.116Z,5.10
2023-02-18T01:42:20.462Z,5.60
2023-02-18T01:45:25.534Z,6.47
2023-02-18T01:48:13.968Z,5.67
2023-02-18T01:51:03.956Z,4.87
2023-02-18T01:53:53.220Z,3.97
2023-02-18T01:56:42.296Z,3.73
2023-02-18T01:59:32.531Z,3.93
2023-02-18T02:02:19.847Z,4.87
2023-02-18T02:05:06.608Z,5.23
2023-02-18T02:07:55.626Z,4.67
2023-02-18T02:10:48.995Z,6.63
2023-02-18T02:13:40.736Z,4.43
2023-02-18T02:16:30.417Z,6.03
2023-02-18T02:19:27.588Z,5.47
2023-02-18T02:22:33.118Z,4.37
2023-02-18T02:25:29.419Z,6.27
2023-02-18T02:28:30.184Z,6.70
2023-02-18T02:31:35.878Z,8.47
2023-02-18T02:34:46.389Z,6.70
2023-02-18T02:37:36.614Z,6.17
2023-02-18T02:40:27.499Z,5.33
2023-02-18T02:43:16.739Z,4.93
2023-02-18T02:46:05.135Z,5.80
2023-02-18T02:48:55.961Z,6.10
2023-02-18T02:51:48.032Z,4.90
2023-02-18T02:54:35.796Z,5.10
2023-02-18T02:57:45.229Z,5.13
2023-02-18T03:00:40.185Z,4.20
2023-02-18T03:03:37.976Z,4.40
2023-02-18T03:06:35.601Z,3.47
2023-02-18T03:09:24.918Z,6.63
2023-02-18T03:12:18.366Z,5.57
2023-02-18T03:15:07.058Z,6.40
2023-02-18T03:17:59.758Z,5.57
2023-02-18T03:20:50.096Z,5.27
2023-02-18T03:23:38.900Z,6.93
2023-02-18T03:26:26.210Z,5.80
2023-02-18T03:29:15.563Z,6.30
2023-02-18T03:32:04.348Z,6.17
2023-02-18T03:34:52.790Z,5.17
2023-02-18T03:37:40.354Z,3.73
2023-02-18T03:40:26.887Z,4.27
2023-02-18T03:43:14.633Z,3.73
2023-02-18T03:46:03.233Z,6.10
2023-02-18T03:48:49.442Z,6.23
2023-02-18T03:51:35.731Z,5.80
2023-02-18T03:54:22.576Z,6.13
2023-02-18T03:57:09.127Z,6.13
2023-02-18T03:59:55.418Z,5.50
2023-02-18T04:02:43.388Z,6.13
2023-02-18T04:05:29.975Z,5.07
2023-02-18T04:08:16.681Z,4.33
2023-02-18T04:11:03.348Z,5.13
2023-02-18T04:13:49.553Z,4.00
2023-02-18T04:16:35.820Z,12.90
2023-02-18T04:19:23.975Z,8.73
2023-02-18T04:22:10.469Z,6.57
2023-02-18T04:24:56.981Z,5.40
2023-02-18T04:27:43.433Z,4.00
2023-02-18T04:30:30.146Z,3.27
2023-02-18T04:33:17.146Z,5.83
2023-02-18T04:36:04.948Z,5.13
2023-02-18T04:38:51.119Z,4.33
2023-02-18T04:41:37.946Z,6.47
2023-02-18T04:44:24.564Z,5.97
2023-02-18T04:47:10.771Z,6.77
2023-02-18T04:49:56.819Z,5.73
2023-02-18T04:52:44.761Z,5.70
2023-02-18T04:55:31.123Z,7.90
2023-02-18T04:58:17.699Z,7.07
2023-02-18T05:01:04.910Z,5.53
2023-02-18T05:03:51.468Z,4.50
2023-02-18T05:06:40.034Z,4.43
2023-02-18T05:09:27.652Z,4.20
2023-02-18T05:12:14.118Z,4.80
2023-02-18T05:15:00.191Z,5.23
2023-02-18T05:17:46.734Z,6.17
2023-02-18T05:20:33.664Z,6.17
2023-02-18T05:23:21.480Z,3.90
2023-02-18T05:26:09.609Z,4.90
2023-02-18T05:28:57.396Z,5.83
2023-02-18T05:31:43.759Z,6.53
2023-02-18T05:34:30.084Z,6.77
2023-02-18T05:37:18.564Z,8.90
2023-02-18T05:40:05.286Z,5.53
2023-02-18T05:42:52.922Z,9.47
2023-02-18T05:45:39.438Z,14.03
2023-02-18T05:48:25.747Z,10.57
2023-02-18T05:51:12.198Z,10.60
2023-02-18T05:53:58.557Z,10.97
2023-02-18T05:56:44.822Z,16.73
2023-02-18T05:59:32.876Z,13.57
2023-02-18T06:02:19.437Z,17.83
2023-02-18T06:05:06.682Z,16.93
2023-02-18T06:07:54.228Z,13.43
2023-02-18T06:10:42.070Z,8.70
2023-02-18T06:13:28.576Z,8.00
2023-02-18T06:16:16.394Z,8.97
2023-02-18T06:19:02.804Z,10.57
2023-02-18T06:21:48.930Z,28.67
2023-02-18T06:24:35.628Z,36.30
2023-02-18T06:27:22.056Z,26.93
2023-02-18T06:30:09.024Z,17.47
2023-02-18T06:32:57.042Z,12.73
2023-02-18T06:35:43.581Z,6.87
2023-02-18T06:38:30.124Z,12.30
2023-02-18T06:41:16.533Z,14.07
2023-02-18T06:44:02.723Z,87.00
2023-02-18T06:46:49.148Z,57.17
2023-02-18T06:49:37.331Z,64.10
2023-02-18T06:52:23.780Z,43.87
2023-02-18T06:55:10.559Z,37.53
2023-02-18T06:57:56.993Z,49.30
2023-02-18T07:00:43.671Z,36.27
2023-02-18T07:03:30.344Z,25.93
2023-02-18T07:06:18.494Z,24.60
2023-02-18T07:09:06.736Z,120.60
2023-02-18T07:11:52.878Z,149.37
2023-02-18T07:14:39.119Z,162.47
2023-02-18T07:17:25.193Z,153.00
2023-02-18T07:20:11.527Z,73.20
2023-02-18T07:22:59.165Z,84.43
2023-02-18T07:25:45.662Z,38.67
2023-02-18T07:28:32.406Z,45.63
2023-02-18T07:31:18.971Z,138.20
2023-02-18T07:34:05.504Z,172.30
2023-02-18T07:36:51.906Z,39.90
2023-02-18T07:39:42.542Z,40.90
2023-02-18T07:42:28.880Z,43.37
2023-02-18T07:45:15.478Z,33.70
2023-02-18T07:48:02.012Z,19.33
2023-02-18T07:50:48.449Z,23.17
2023-02-18T07:53:35.038Z,25.83
2023-02-18T07:56:22.588Z,19.83
2023-02-18T07:59:09.096Z,19.03
2023-02-18T08:01:55.483Z,17.63
2023-02-18T08:04:42.094Z,12.33
2023-02-18T08:07:28.313Z,15.73
2023-02-18T08:10:14.754Z,19.13
2023-02-18T08:13:02.472Z,11.50
2023-02-18T08:15:50.332Z,12.53
2023-02-18T08:18:36.390Z,15.23
2023-02-18T08:21:23.701Z,13.47
2023-02-18T08:24:10.077Z,9.50
2023-02-18T08:27:00.923Z,10.23
2023-02-18T08:29:49.156Z,10.53
2023-02-18T08:32:35.649Z,11.20
2023-02-18T08:35:22.073Z,10.40
2023-02-18T08:38:08.279Z,11.90
2023-02-18T08:41:02.535Z,12.33
2023-02-18T08:43:49.145Z,17.17
2023-02-18T08:46:36.720Z,14.03
2023-02-18T08:49:24.436Z,13.80
2023-02-18T08:52:10.811Z,14.03
2023-02-18T08:54:57.154Z,10.17
2023-02-18T08:57:43.700Z,12.57
2023-02-18T09:00:30.250Z,12.13
2023-02-18T09:03:18.160Z,12.90
2023-02-18T09:06:05.019Z,12.77
2023-02-18T09:08:51.110Z,8.50
2023-02-18T09:11:37.978Z,9.03
2023-02-18T09:14:24.302Z,5.77
2023-02-18T09:17:10.923Z,7.57
2023-02-18T09:19:58.527Z,4.80
2023-02-18T09:22:45.007Z,5.27
2023-02-18T09:25:31.359Z,6.07
2023-02-18T09:28:17.563Z,4.40
2023-02-18T09:31:07.949Z,2.43
2023-02-18T09:33:55.530Z,1.70
2023-02-18T09:36:43.188Z,1.97
2023-02-18T09:39:29.612Z,1.87
2023-02-18T09:42:17.643Z,2.00
2023-02-18T09:45:06.354Z,1.40
2023-02-18T09:47:53.206Z,2.17
2023-02-18T09:50:39.429Z,1.50
2023-02-18T09:53:27.780Z,1.90
2023-02-18T09:56:15.065Z,1.80
2023-02-18T09:59:04.339Z,1.87
2023-02-18T10:01:52.256Z,1.57
2023-02-18T10:04:42.377Z,1.87
2023-02-18T10:07:30.588Z,1.77
2023-02-18T10:10:22.301Z,3.17
2023-02-18T10:13:12.307Z,1.67
2023-02-18T10:15:58.710Z,2.83
2023-02-18T10:18:49.140Z,1.73
2023-02-18T10:21:36.547Z,2.20
2023-02-18T10:24:27.933Z,1.97
2023-02-18T10:27:18.930Z,1.77
2023-02-18T10:30:17.989Z,3.07
2023-02-18T10:33:13.224Z,2.00
2023-02-18T10:36:03.999Z,1.80
2023-02-18T10:38:57.693Z,1.37
2023-02-18T10:41:47.449Z,2.00
2023-02-18T10:44:38.689Z,1.80
2023-02-18T10:47:30.927Z,2.00
2023-02-18T10:50:26.369Z,1.40
2023-02-18T10:53:14.064Z,2.17
2023-02-18T10:56:00.469Z,1.93
2023-02-18T10:58:47.825Z,1.93
2023-02-18T11:01:35.793Z,2.60
2023-02-18T11:04:24.419Z,1.80
2023-02-18T11:07:15.596Z,2.30
2023-02-18T11:10:03.117Z,2.37
2023-02-18T11:12:51.726Z,1.70
2023-02-18T11:15:38.297Z,2.43
2023-02-18T11:18:31.361Z,2.17
2023-02-18T11:21:23.164Z,2.20
2023-02-18T11:24:11.260Z,2.67
2023-02-18T11:26:57.416Z,3.07
2023-02-18T11:29:43.752Z,2.50
2023-02-18T11:32:30.699Z,2.83
2023-02-18T11:35:21.148Z,3.13
2023-02-18T11:38:25.077Z,3.00
2023-02-18T11:41:12.442Z,2.90
2023-02-18T11:43:59.166Z,2.23
2023-02-18T11:46:57.223Z,1.97
2023-02-18T11:49:44.692Z,2.10
2023-02-18T11:52:35.568Z,1.70
2023-02-18T11:55:22.694Z,2.90
2023-02-18T11:58:12.043Z,1.90
2023-02-18T12:01:00.142Z,2.60
2023-02-18T12:03:49.790Z,2.13
2023-02-18T12:06:39.173Z,1.40
2023-02-18T12:09:29.865Z,2.40
2023-02-18T12:12:17.979Z,2.87
2023-02-18T12:15:04.047Z,2.30
2023-02-18T12:18:00.661Z,1.93
2023-02-18T12:20:52.886Z,1.90
2023-02-18T12:23:44.012Z,2.33
2023-02-18T12:26:37.371Z,2.00
2023-02-18T12:29:38.558Z,2.10
2023-02-18T12:32:31.897Z,2.03
2023-02-18T12:35:29.880Z,1.80
2023-02-18T12:38:30.686Z,1.53
2023-02-18T12:41:30.351Z,1.63
2023-02-18T12:44:28.047Z,1.73
2023-02-18T12:47:27.911Z,1.80
2023-02-18T12:50:23.127Z,2.03
2023-02-18T12:53:24.256Z,1.90
2023-02-18T12:56:37.361Z,1.50
2023-02-18T12:59:38.094Z,1.47
2023-02-18T13:02:34.663Z,1.50
2023-02-18T13:05:29.464Z,1.30
2023-02-18T13:08:21.528Z,1.67
2023-02-18T13:11:16.629Z,1.00
2023-02-18T13:14:05.678Z,1.20
2023-02-18T13:16:56.161Z,1.80
2023-02-18T13:19:46.288Z,1.50
2023-02-18T13:22:32.643Z,1.30
2023-02-18T13:25:19.880Z,1.63
2023-02-18T13:28:10.174Z,1.50
2023-02-18T13:31:02.547Z,1.70
2023-02-18T13:33:54.769Z,1.20
2023-02-18T13:36:58.278Z,3.60
2023-02-18T13:39:48.645Z,1.43
2023-02-18T13:42:36.331Z,1.30
2023-02-18T13:45:28.111Z,1.40
2023-02-18T13:48:23.647Z,1.10
2023-02-18T13:51:12.481Z,1.70
2023-02-18T13:54:02.210Z,1.30
2023-02-18T13:56:51.543Z,1.13
2023-02-18T13:59:39.837Z,1.20
2023-02-18T14:02:33.540Z,1.13
2023-02-18T14:05:23.947Z,1.33
2023-02-18T14:08:15.591Z,1.23
2023-02-18T14:11:20.663Z,1.60
2023-02-18T14:14:25.298Z,1.27
2023-02-18T14:17:32.599Z,1.20
2023-02-18T14:20:32.856Z,1.40
2023-02-18T14:23:37.898Z,1.77
2023-02-18T14:26:29.389Z,0.93
2023-02-18T14:29:28.916Z,1.20
2023-02-18T14:32:19.972Z,1.30
2023-02-18T14:35:19.036Z,1.37
2023-02-18T14:38:15.583Z,1.83
2023-02-18T14:41:17.165Z,1.37
2023-02-18T14:44:21.211Z,1.60
2023-02-18T14:47:13.571Z,1.30
2023-02-18T14:50:02.594Z,1.30
2023-02-18T14:52:49.748Z,1.50
2023-02-18T14:55:37.392Z,1.20
2023-02-18T14:58:29.460Z,1.10
2023-02-18T15:01:20.213Z,1.40
2023-02-18T15:04:06.874Z,1.40
2023-02-18T15:06:59.705Z,1.47
2023-02-18T15:09:46.931Z,1.70
2023-02-18T15:12:33.682Z,1.30
2023-02-18T15:15:20.355Z,1.97
2023-02-18T15:18:13.630Z,1.40
2023-02-18T15:21:01.901Z,1.83
2023-02-18T15:23:48.712Z,2.10
2023-02-18T15:26:36.466Z,2.13
2023-02-18T15:29:23.408Z,1.50
2023-02-18T15:32:16.374Z,1.37
2023-02-18T15:35:05.222Z,2.00
2023-02-18T15:37:53.902Z,2.13
2023-02-18T15:40:41.050Z,1.50
2023-02-18T15:43:27.944Z,2.40
2023-02-18T15:46:15.062Z,2.30
2023-02-18T15:49:02.196Z,1.87
2023-02-18T15:51:50.545Z,2.20
2023-02-18T15:54:38.534Z,2.13
2023-02-18T15:57:27.787Z,2.20
2023-02-18T16:00:16.113Z,3.00
2023-02-18T16:03:04.883Z,2.40
2023-02-18T16:05:51.397Z,1.80
2023-02-18T16:08:41.107Z,1.90
2023-02-18T16:11:30.249Z,2.20
2023-02-18T16:14:25.074Z,2.33
2023-02-18T16:17:15.819Z,2.10
2023-02-18T16:20:05.788Z,2.10
2023-02-18T16:22:53.343Z,11.03
2023-02-18T16:25:45.243Z,17.33
2023-02-18T16:28:33.786Z,1.83
2023-02-18T16:31:21.624Z,5.83
2023-02-18T16:34:07.823Z,2.10
2023-02-18T16:37:11.380Z,2.00
2023-02-18T16:39:58.066Z,1.90
2023-02-18T16:42:45.934Z,2.50
2023-02-18T16:45:34.475Z,3.20
2023-02-18T16:48:22.080Z,2.30
2023-02-18T16:51:10.750Z,2.77
2023-02-18T16:53:57.554Z,2.57
2023-02-18T16:56:43.924Z,3.17
2023-02-18T16:59:31.787Z,2.37
2023-02-18T17:02:19.784Z,3.80
2023-02-18T17:05:14.337Z,3.57
2023-02-18T17:08:15.394Z,2.23
2023-02-18T17:11:02.016Z,3.07
2023-02-18T17:13:48.720Z,2.57
2023-02-18T17:16:36.262Z,3.13
2023-02-18T17:19:22.733Z,5.07
2023-02-18T17:22:08.949Z,5.53
2023-02-18T17:24:55.045Z,5.33
2023-02-18T17:27:47.104Z,8.07
2023-02-18T17:30:36.889Z,8.07
2023-02-18T17:33:26.161Z,7.80
2023-02-18T17:36:13.048Z,5.87
2023-02-18T17:39:01.546Z,5.40
2023-02-18T17:41:49.346Z,4.77
2023-02-18T17:44:36.217Z,6.70
2023-02-18T17:47:22.619Z,5.20
2023-02-18T17:50:10.752Z,3.90
2023-02-18T17:52:56.963Z,6.43
2023-02-18T17:55:43.795Z,5.50
2023-02-18T17:58:29.960Z,4.37
2023-02-18T18:01:17.167Z,3.20
2023-02-18T18:04:03.518Z,3.47
2023-02-18T18:06:51.458Z,4.97
2023-02-18T18:09:37.974Z,4.57
2023-02-18T18:12:24.580Z,5.23
2023-02-18T18:15:25.133Z,7.47
2023-02-18T18:18:12.004Z,3.80
2023-02-18T18:20:59.603Z,3.40
2023-02-18T18:23:47.270Z,2.00
2023-02-18T18:26:33.692Z,3.80
2023-02-18T18:29:19.868Z,6.63
2023-02-18T18:32:06.326Z,4.00
2023-02-18T18:34:53.126Z,5.07
2023-02-18T18:37:39.666Z,2.70
2023-02-18T18:40:28.270Z,2.90
2023-02-18T18:43:18.144Z,6.63
2023-02-18T18:46:04.402Z,2.90
2023-02-18T18:48:51.012Z,4.20
2023-02-18T18:51:37.073Z,7.23
2023-02-18T18:54:23.227Z,5.17
2023-02-18T18:57:10.950Z,3.10
2023-02-18T18:59:57.345Z,4.00
2023-02-18T19:02:43.759Z,4.87
2023-02-18T19:05:30.747Z,3.27
2023-02-18T19:08:19.542Z,2.73
2023-02-18T19:11:06.153Z,3.60
2023-02-18T19:13:53.798Z,3.20
2023-02-18T19:16:42.718Z,4.20
2023-02-18T19:19:31.026Z,3.57
2023-02-18T19:22:17.603Z,5.10
2023-02-18T19:25:04.348Z,4.47
2023-02-18T19:27:50.990Z,4.27
2023-02-18T19:30:40.436Z,3.00
2023-02-18T19:33:26.923Z,2.37
2023-02-18T19:36:14.779Z,3.07
2023-02-18T19:39:01.032Z,2.77
2023-02-18T19:41:47.637Z,2.87
2023-02-18T19:44:35.036Z,2.60
2023-02-18T19:47:22.585Z,3.47
2023-02-18T19:50:10.147Z,3.77
2023-02-18T19:52:56.622Z,10.53
2023-02-18T19:55:42.991Z,5.70
2023-02-18T19:58:29.677Z,8.50
2023-02-18T20:01:17.413Z,5.90
2023-02-18T20:04:05.190Z,3.73
2023-02-18T20:06:51.858Z,4.37
2023-02-18T20:09:38.489Z,3.40
2023-02-18T20:12:24.858Z,3.43
2023-02-18T20:15:11.597Z,2.33
2023-02-18T20:17:57.830Z,2.53
2023-02-18T20:20:52.393Z,2.60
2023-02-18T20:23:39.752Z,2.50
2023-02-18T20:26:26.060Z,2.37
2023-02-18T20:29:12.169Z,2.30
2023-02-18T20:31:58.759Z,2.50
2023-02-18T20:34:44.912Z,2.70
2023-02-18T20:37:33.032Z,2.43
2023-02-18T20:40:20.012Z,2.97
2023-02-18T20:43:06.137Z,2.23
2023-02-18T20:45:52.502Z,2.90
2023-02-18T20:48:39.271Z,2.27
2023-02-18T20:51:25.920Z,3.07
2023-02-18T20:54:15.849Z,2.60
2023-02-18T20:57:02.317Z,2.70
2023-02-18T20:59:48.349Z,2.07
2023-02-18T21:02:34.856Z,1.73
2023-02-18T21:05:21.434Z,2.10
2023-02-18T21:08:07.504Z,2.30
2023-02-18T21:10:55.281Z,2.17
2023-02-18T21:13:42.036Z,1.60
2023-02-18T21:16:32.236Z,2.70
2023-02-18T21:19:18.869Z,2.17
2023-02-18T21:22:05.082Z,2.50
2023-02-18T21:24:51.866Z,2.40
2023-02-18T21:27:39.246Z,3.33
2023-02-18T21:30:25.822Z,3.83
2023-02-18T21:33:12.673Z,4.67
2023-02-18T21:36:02.149Z,4.80
2023-02-18T21:38:52.580Z,3.47
2023-02-18T21:41:40.816Z,4.30
2023-02-18T21:44:41.269Z,5.40
2023-02-18T21:47:28.521Z,6.23
2023-02-18T21:50:15.745Z,5.23
2023-02-18T21:53:04.412Z,5.30
2023-02-18T21:56:03.224Z,6.27
2023-02-18T21:58:50.295Z,5.00
2023-02-18T22:01:37.909Z,7.00
2023-02-18T22:04:25.356Z,5.77
2023-02-18T22:07:11.446Z,9.47
2023-02-18T22:09:57.925Z,10.20
2023-02-18T22:12:44.282Z,9.23
2023-02-18T22:15:30.608Z,7.33
2023-02-18T22:18:18.131Z,6.20
2023-02-18T22:21:07.080Z,5.37
2023-02-18T22:23:53.552Z,5.77
2023-02-18T22:26:40.225Z,6.93
2023-02-18T22:29:26.296Z,5.47
2023-02-18T22:32:12.643Z,5.53
2023-02-18T22:35:00.469Z,6.57
2023-02-18T22:37:47.009Z,5.97
2023-02-18T22:40:33.173Z,6.40
2023-02-18T22:43:19.366Z,6.93
2023-02-18T22:46:06.706Z,5.90
2023-02-18T22:48:53.262Z,5.67
2023-02-18T22:51:42.251Z,6.33
2023-02-18T22:54:28.771Z,5.77
2023-02-18T22:57:14.991Z,6.30
2023-02-18T23:00:01.776Z,6.53
2023-02-18T23:02:51.352Z,5.33
2023-02-18T23:05:37.797Z,3.73
2023-02-18T23:08:25.398Z,4.57
2023-02-18T23:11:13.113Z,3.73
2023-02-18T23:14:17.084Z,4.20
2023-02-18T23:17:17.735Z,4.77
2023-02-18T23:20:05.014Z,5.23
2023-02-18T23:22:51.555Z,4.77
2023-02-18T23:25:39.414Z,3.37
2023-02-18T23:28:25.772Z,4.20
2023-02-18T23:31:12.497Z,4.77
2023-02-18T23:34:00.288Z,3.87
2023-02-18T23:36:47.498Z,3.73
2023-02-18T23:39:34.237Z,4.57
2023-02-18T23:42:22.037Z,3.57
2023-02-18T23:45:08.887Z,3.20
2023-02-18T23:47:55.263Z,2.93
2023-02-18T23:50:43.272Z,2.13
2023-02-18T23:53:30.189Z,2.77
2023-02-18T23:56:17.315Z,2.60
2023-02-18T23:59:06.448Z,2.67
